Главная страница
METAR-TAF:

METAR-TAF

Аэропорты :

Киркенес, Норвегия

широта: 69-44N, долгота: 029-54E, высота над уровнем моря: 9 м

Текущие метеонаблюдения

Эта сводка был подготовлена 20 минут назад, в 02:50 UTC
Ветер 11 Узел от юго-юго-восточный
Температура 12°C
Влажность 88%
Давление 1009 hPa
Видимость 10 км и более
Отдельные облака на высоте 2600 фута

METAR: ENKR 170250Z 16011KT 9999 SCT026 12/10 Q1009 RMK WIND 731FT 17017KT

Время: 05:10 (03:10 UTC)

Прогноз

Эта сводка был подготовлена 1 час и 10 минут назад, в 02:00 UTC
Прогноз действительный с 17-го 03 UTC до 17-го 12 UTC
Ветер 12 Узел от южный
Видимость 10 км и более
небольшая облачность на высоте 2000 фута
Рассеянная облачность на высоте 4000 фута

TAF: ENKR 170200Z 1703/1712 18012KT 9999 FEW020 BKN040

Метеонаблюдения и прогнозы для более 4000 аэропортов (сводки METAR и TAF).

Имеющиеся станции представлены на карте желтыми и красными точками.

Чтобы увидеть название станции, наведите на нее мышь.

Затем щелкните, чтобы увидеть метеонаблюдения и метеопрогнозы.

Управление картой: чтобы увеличить масштаб, щелкните зеленые кнопки с черным крестиком; чтобы уменьшить масштаб, щелкните зеленую кнопку с тире; для просмотра соседних карт щелкайте зеленые стрелки.


METAR-TAF: